createdAt,value
2023-04-04T00:00:18.953Z,73.49
2023-04-04T00:01:18.936Z,73.59
2023-04-04T00:02:18.940Z,73.69
2023-04-04T00:03:18.965Z,73.69
2023-04-04T00:04:18.950Z,73.80
2023-04-04T00:05:18.898Z,73.90
2023-04-04T00:06:18.851Z,74.01
2023-04-04T00:07:18.844Z,73.90
2023-04-04T00:08:18.871Z,73.90
2023-04-04T00:09:18.832Z,73.90
2023-04-04T00:10:18.851Z,74.01
2023-04-04T00:11:18.803Z,74.15
2023-04-04T00:12:18.793Z,74.15
2023-04-04T00:13:18.795Z,74.15
2023-04-04T00:14:18.774Z,74.04
2023-04-04T00:15:18.776Z,73.93
2023-04-04T00:16:18.781Z,74.15
2023-04-04T00:17:18.738Z,74.04
2023-04-04T00:18:18.748Z,74.15
2023-04-04T00:19:18.718Z,74.04
2023-04-04T00:20:18.740Z,74.04
2023-04-04T00:21:18.687Z,74.15
2023-04-04T00:22:18.672Z,74.04
2023-04-04T00:23:18.668Z,74.04
2023-04-04T00:24:18.652Z,74.04
2023-04-04T00:25:18.667Z,74.15
2023-04-04T00:26:18.637Z,74.25
2023-04-04T00:27:18.638Z,74.56
2023-04-04T00:28:18.608Z,74.56
2023-04-04T00:29:18.606Z,74.66
2023-04-04T00:30:18.612Z,74.66
2023-04-04T00:31:18.617Z,74.87
2023-04-04T00:32:18.579Z,75.12
2023-04-04T00:33:18.641Z,75.12
2023-04-04T00:34:18.541Z,75.12
2023-04-04T00:35:18.561Z,75.12
2023-04-04T00:36:18.532Z,75.01
2023-04-04T00:37:18.519Z,75.12
2023-04-04T00:38:18.508Z,75.32
2023-04-04T00:39:18.507Z,75.43
2023-04-04T00:40:18.497Z,75.32
2023-04-04T00:41:18.470Z,75.43
2023-04-04T00:42:18.464Z,75.32
2023-04-04T00:43:18.446Z,75.32
2023-04-04T00:44:18.433Z,75.22
2023-04-04T00:45:18.441Z,75.12
2023-04-04T00:46:18.414Z,75.12
2023-04-04T00:47:18.401Z,74.91
2023-04-04T00:48:18.382Z,74.80
2023-04-04T00:49:18.389Z,74.70
2023-04-04T00:50:18.396Z,74.60
2023-04-04T00:51:18.368Z,74.70
2023-04-04T00:52:18.343Z,74.80
2023-04-04T00:53:18.328Z,74.70
2023-04-04T00:54:18.319Z,74.60
2023-04-04T00:55:18.334Z,74.60
2023-04-04T00:56:18.319Z,74.70
2023-04-04T00:57:18.294Z,74.80
2023-04-04T00:58:18.292Z,74.91
2023-04-04T00:59:18.300Z,74.91
2023-04-04T01:00:18.275Z,74.91
2023-04-04T01:01:18.286Z,74.80
2023-04-04T01:02:18.227Z,74.80
2023-04-04T01:03:18.231Z,74.91
2023-04-04T01:04:18.239Z,74.91
2023-04-04T01:05:18.225Z,74.80
2023-04-04T01:06:18.197Z,74.80
2023-04-04T01:07:18.180Z,74.80
2023-04-04T01:08:18.160Z,74.70
2023-04-04T01:09:18.157Z,74.91
2023-04-04T01:10:18.164Z,74.91
2023-04-04T01:11:18.135Z,74.91
2023-04-04T01:12:18.121Z,75.01
2023-04-04T01:13:18.108Z,74.91
2023-04-04T01:14:18.120Z,74.80
2023-04-04T01:15:18.111Z,74.70
2023-04-04T01:16:18.100Z,74.80
2023-04-04T01:17:18.062Z,75.01
2023-04-04T01:18:18.045Z,75.01
2023-04-04T01:19:18.041Z,74.91
2023-04-04T01:20:18.040Z,74.80
2023-04-04T01:21:18.018Z,74.84
2023-04-04T01:22:18.029Z,74.94
2023-04-04T01:23:17.998Z,75.05
2023-04-04T01:24:17.987Z,75.05
2023-04-04T01:25:17.996Z,74.94
2023-04-04T01:26:17.959Z,74.94
2023-04-04T01:27:17.954Z,75.05
2023-04-04T01:28:17.940Z,75.15
2023-04-04T01:29:17.938Z,75.15
2023-04-04T01:30:17.944Z,75.05
2023-04-04T01:31:17.916Z,75.15
2023-04-04T01:32:17.892Z,75.36
2023-04-04T01:33:17.900Z,75.26
2023-04-04T01:34:17.868Z,75.26
2023-04-04T01:35:17.894Z,75.46
2023-04-04T01:36:17.870Z,75.46
2023-04-04T01:37:17.840Z,75.57
2023-04-04T01:38:17.821Z,75.71
2023-04-04T01:39:17.820Z,75.81
2023-04-04T01:40:17.837Z,75.71
2023-04-04T01:41:17.813Z,75.60
2023-04-04T01:42:17.778Z,75.71
2023-04-04T01:43:17.779Z,75.92
2023-04-04T01:44:17.785Z,75.81
2023-04-04T01:45:17.782Z,75.81
2023-04-04T01:46:17.805Z,75.71
2023-04-04T01:47:17.735Z,75.81
2023-04-04T01:48:17.736Z,75.92
2023-04-04T01:49:17.710Z,76.02
2023-04-04T01:50:17.748Z,76.23
2023-04-04T01:51:17.698Z,76.47
2023-04-04T01:52:17.686Z,76.68
2023-04-04T01:53:17.673Z,76.79
2023-04-04T01:54:17.671Z,77.00
2023-04-04T01:55:17.666Z,77.10
2023-04-04T01:56:17.653Z,77.20
2023-04-04T01:57:17.622Z,77.20
2023-04-04T01:58:17.616Z,77.31
2023-04-04T01:59:17.646Z,77.41
2023-04-04T02:00:17.606Z,77.41
2023-04-04T02:01:17.587Z,77.41
2023-04-04T02:02:17.568Z,77.41
2023-04-04T02:03:17.555Z,77.31
2023-04-04T02:04:17.576Z,77.20
2023-04-04T02:05:17.558Z,77.41
2023-04-04T02:06:17.561Z,77.31
2023-04-04T02:07:17.514Z,77.31
2023-04-04T02:08:17.509Z,77.31
2023-04-04T02:09:17.490Z,77.31
2023-04-04T02:10:17.509Z,77.73
2023-04-04T02:11:17.483Z,78.04
2023-04-04T02:12:17.472Z,77.83
2023-04-04T02:13:17.441Z,77.62
2023-04-04T02:14:17.452Z,77.62
2023-04-04T02:15:17.445Z,77.73
2023-04-04T02:16:17.471Z,77.94
2023-04-04T02:17:17.404Z,78.14
2023-04-04T02:18:17.400Z,78.35
2023-04-04T02:19:17.374Z,78.25
2023-04-04T02:20:17.388Z,78.08
2023-04-04T02:21:17.356Z,77.97
2023-04-04T02:22:17.346Z,77.97
2023-04-04T02:23:17.335Z,77.97
2023-04-04T02:24:17.328Z,77.97
2023-04-04T02:25:17.328Z,77.97
2023-04-04T02:26:17.299Z,78.08
2023-04-04T02:27:17.293Z,78.08
2023-04-04T02:28:17.279Z,77.97
2023-04-04T02:29:17.266Z,77.97
2023-04-04T02:30:17.289Z,77.97
2023-04-04T02:31:17.280Z,77.97
2023-04-04T02:32:17.234Z,77.97
2023-04-04T02:33:17.251Z,77.87
2023-04-04T02:34:17.209Z,77.69
2023-04-04T02:35:17.217Z,77.69
2023-04-04T02:36:17.253Z,77.90
2023-04-04T02:37:17.195Z,78.01
2023-04-04T02:38:17.179Z,78.11
2023-04-04T02:39:17.151Z,78.22
2023-04-04T02:40:17.169Z,78.22
2023-04-04T02:41:17.125Z,78.22
2023-04-04T02:42:17.122Z,78.42
2023-04-04T02:43:17.112Z,78.42
2023-04-04T02:44:17.116Z,78.32
2023-04-04T02:45:17.108Z,78.22
2023-04-04T02:46:21.630Z,78.11
2023-04-04T02:47:17.086Z,78.01
2023-04-04T02:48:17.054Z,77.90
2023-04-04T02:49:17.044Z,77.90
2023-04-04T02:50:17.065Z,77.90
2023-04-04T02:51:17.020Z,77.90
2023-04-04T02:52:17.021Z,77.80
2023-04-04T02:53:17.030Z,77.90
2023-04-04T02:54:17.012Z,77.90
2023-04-04T02:55:17.010Z,78.01
2023-04-04T02:56:16.978Z,77.80
2023-04-04T02:57:16.955Z,77.69
2023-04-04T02:58:16.944Z,77.69
2023-04-04T02:59:16.949Z,77.59
2023-04-04T03:00:16.952Z,77.59
2023-04-04T03:01:16.943Z,78.01
2023-04-04T03:02:17.027Z,78.32
2023-04-04T03:03:17.036Z,78.42
2023-04-04T03:04:16.929Z,78.42
2023-04-04T03:05:16.908Z,78.53
2023-04-04T03:06:16.869Z,78.67
2023-04-04T03:07:16.848Z,78.67
2023-04-04T03:08:16.845Z,78.88
2023-04-04T03:09:16.833Z,79.09
2023-04-04T03:10:16.856Z,79.30
2023-04-04T03:11:16.799Z,79.50
2023-04-04T03:12:16.794Z,79.61
2023-04-04T03:13:16.780Z,79.61
2023-04-04T03:14:16.779Z,79.61
2023-04-04T03:15:16.784Z,79.40
2023-04-04T03:16:16.777Z,79.30
2023-04-04T03:17:16.734Z,79.19
2023-04-04T03:18:16.727Z,79.19
2023-04-04T03:19:16.704Z,79.09
2023-04-04T03:20:16.744Z,78.99
2023-04-04T03:21:16.704Z,78.99
2023-04-04T03:22:16.724Z,79.02
2023-04-04T03:23:16.668Z,79.02
2023-04-04T03:24:16.666Z,79.02
2023-04-04T03:25:16.707Z,79.02
2023-04-04T03:26:16.632Z,79.02
2023-04-04T03:27:16.624Z,79.02
2023-04-04T03:28:16.605Z,79.23
2023-04-04T03:29:16.610Z,79.75
2023-04-04T03:30:16.622Z,80.17
2023-04-04T03:31:16.585Z,80.38
2023-04-04T03:32:16.572Z,80.38
2023-04-04T03:33:16.579Z,80.27
2023-04-04T03:34:16.550Z,80.17
2023-04-04T03:35:16.550Z,80.17
2023-04-04T03:36:16.516Z,80.27
2023-04-04T03:37:16.525Z,80.17
2023-04-04T03:38:16.538Z,80.07
2023-04-04T03:39:16.506Z,80.17
2023-04-04T03:40:16.512Z,80.38
2023-04-04T03:41:16.456Z,80.52
2023-04-04T03:42:16.479Z,80.63
2023-04-04T03:43:16.443Z,80.63
2023-04-04T03:44:16.504Z,80.73
2023-04-04T03:45:16.448Z,80.83
2023-04-04T03:46:16.430Z,81.04
2023-04-04T03:47:16.410Z,81.04
2023-04-04T03:48:16.397Z,81.04
2023-04-04T03:49:16.367Z,81.15
2023-04-04T03:50:16.388Z,81.15
2023-04-04T03:51:16.347Z,81.15
2023-04-04T03:52:16.353Z,81.04
2023-04-04T03:53:16.330Z,81.04
2023-04-04T03:54:16.321Z,81.04
2023-04-04T03:55:16.326Z,81.36
2023-04-04T03:56:16.305Z,81.57
2023-04-04T03:57:16.281Z,81.78
2023-04-04T03:58:16.270Z,81.88
2023-04-04T03:59:16.323Z,81.99
2023-04-04T04:00:16.273Z,82.09
2023-04-04T04:01:16.240Z,82.20
2023-04-04T04:02:16.250Z,82.20
2023-04-04T04:03:17.325Z,82.20
2023-04-04T04:04:16.239Z,82.20
2023-04-04T04:05:16.209Z,82.20
2023-04-04T04:06:16.196Z,82.09
2023-04-04T04:07:16.181Z,82.09
2023-04-04T04:08:16.169Z,82.09
2023-04-04T04:09:16.155Z,81.99
2023-04-04T04:10:16.161Z,82.13
2023-04-04T04:11:16.148Z,82.23
2023-04-04T04:12:16.122Z,82.45
2023-04-04T04:13:16.111Z,82.55
2023-04-04T04:14:16.099Z,82.55
2023-04-04T04:15:16.108Z,82.55
2023-04-04T04:16:16.108Z,82.45
2023-04-04T04:17:16.073Z,82.45
2023-04-04T04:18:16.088Z,82.23
2023-04-04T04:19:16.070Z,82.03
2023-04-04T04:20:16.059Z,81.92
2023-04-04T04:21:16.053Z,81.92
2023-04-04T04:22:16.024Z,82.03
2023-04-04T04:23:16.025Z,82.03
2023-04-04T04:24:16.022Z,81.92
2023-04-04T04:25:16.005Z,82.03
2023-04-04T04:26:15.967Z,81.92
2023-04-04T04:27:15.966Z,81.85
2023-04-04T04:28:15.933Z,81.71
2023-04-04T04:29:15.929Z,81.64
2023-04-04T04:30:15.930Z,81.54
2023-04-04T04:31:15.935Z,81.54
2023-04-04T04:32:15.899Z,81.54
2023-04-04T04:33:15.890Z,81.54
2023-04-04T04:34:15.876Z,81.54
2023-04-04T04:35:15.888Z,81.75
2023-04-04T04:36:15.920Z,81.85
2023-04-04T04:37:15.841Z,82.17
2023-04-04T04:38:15.841Z,82.27
2023-04-04T04:39:15.823Z,82.17
2023-04-04T04:40:15.824Z,82.17
2023-04-04T04:41:15.803Z,82.17
2023-04-04T04:42:15.791Z,82.06
2023-04-04T04:43:15.785Z,82.06
2023-04-04T04:44:15.763Z,82.06
2023-04-04T04:45:15.823Z,81.96
2023-04-04T04:46:15.766Z,82.06
2023-04-04T04:47:15.747Z,82.17
2023-04-04T04:48:15.736Z,82.06
2023-04-04T04:49:15.723Z,82.06
2023-04-04T04:50:15.725Z,82.27
2023-04-04T04:51:15.692Z,82.27
2023-04-04T04:52:15.671Z,82.27
2023-04-04T04:53:15.662Z,82.06
2023-04-04T04:54:15.664Z,81.96
2023-04-04T04:55:15.673Z,82.06
2023-04-04T04:56:15.635Z,82.17
2023-04-04T04:57:15.627Z,82.42
2023-04-04T04:58:15.967Z,82.38
2023-04-04T04:59:15.654Z,82.52
2023-04-04T05:00:15.607Z,82.38
2023-04-04T05:01:15.591Z,82.42
2023-04-04T05:02:15.581Z,82.31
2023-04-04T05:03:15.590Z,82.10
2023-04-04T05:04:15.545Z,82.10
2023-04-04T05:05:15.545Z,81.99
2023-04-04T05:06:15.521Z,81.89
2023-04-04T05:07:15.506Z,81.79
2023-04-04T05:08:15.497Z,81.68
2023-04-04T05:09:15.507Z,81.68
2023-04-04T05:10:15.495Z,81.68
2023-04-04T05:11:15.481Z,81.89
2023-04-04T05:12:15.446Z,82.10
2023-04-04T05:13:15.452Z,82.20
2023-04-04T05:14:15.430Z,82.31
2023-04-04T05:15:15.441Z,82.42
2023-04-04T05:16:15.493Z,82.20
2023-04-04T05:17:15.405Z,81.99
2023-04-04T05:18:15.390Z,81.89
2023-04-04T05:19:15.460Z,81.68
2023-04-04T05:20:15.388Z,81.68
2023-04-04T05:21:15.378Z,81.89
2023-04-04T05:22:15.332Z,82.20
2023-04-04T05:23:15.334Z,82.52
2023-04-04T05:24:15.314Z,82.73
2023-04-04T05:25:15.347Z,82.79
2023-04-04T05:26:15.325Z,82.90
2023-04-04T05:27:15.291Z,82.79
2023-04-04T05:28:15.264Z,82.79
2023-04-04T05:29:15.289Z,82.59
2023-04-04T05:30:15.244Z,82.48
2023-04-04T05:31:15.239Z,82.38
2023-04-04T05:32:15.426Z,82.27
2023-04-04T05:33:15.253Z,82.17
2023-04-04T05:34:15.200Z,82.17
2023-04-04T05:35:15.271Z,82.27
2023-04-04T05:36:15.217Z,82.38
2023-04-04T05:37:15.174Z,82.38
2023-04-04T05:38:15.195Z,82.48
2023-04-04T05:39:15.167Z,82.48
2023-04-04T05:40:15.138Z,82.48
2023-04-04T05:41:15.147Z,82.38
2023-04-04T05:42:15.116Z,82.27
2023-04-04T05:43:15.111Z,82.38
2023-04-04T05:44:15.118Z,82.48
2023-04-04T05:45:15.088Z,82.38
2023-04-04T05:46:15.096Z,82.38
2023-04-04T05:47:15.106Z,82.38
2023-04-04T05:48:15.044Z,82.48
2023-04-04T05:49:15.038Z,82.48
2023-04-04T05:50:15.062Z,82.59
2023-04-04T05:51:15.022Z,82.59
2023-04-04T05:52:15.006Z,82.59
2023-04-04T05:53:14.997Z,82.45
2023-04-04T05:54:14.996Z,82.55
2023-04-04T05:55:14.978Z,82.65
2023-04-04T05:56:14.993Z,82.65
2023-04-04T05:57:14.950Z,82.86
2023-04-04T05:58:14.942Z,82.86
2023-04-04T05:59:15.001Z,82.76
2023-04-04T06:00:14.919Z,82.76
2023-04-04T06:01:14.948Z,82.55
2023-04-04T06:02:14.911Z,82.65
2023-04-04T06:03:15.021Z,82.72
2023-04-04T06:04:14.900Z,82.72
2023-04-04T06:05:14.895Z,82.82
2023-04-04T06:06:14.921Z,82.93
2023-04-04T06:07:14.841Z,82.82
2023-04-04T06:08:14.823Z,82.72
2023-04-04T06:09:14.830Z,82.72
2023-04-04T06:10:14.822Z,82.40
2023-04-04T06:11:14.801Z,82.30
2023-04-04T06:12:14.827Z,82.16
2023-04-04T06:13:14.780Z,82.06
2023-04-04T06:14:15.392Z,82.06
2023-04-04T06:15:14.803Z,82.06
2023-04-04T06:16:14.773Z,81.74
2023-04-04T06:17:14.752Z,81.70
2023-04-04T06:18:14.785Z,81.70
2023-04-04T06:19:14.717Z,81.60
2023-04-04T06:20:14.693Z,81.39
2023-04-04T06:21:14.739Z,81.18
2023-04-04T06:22:14.694Z,80.97
2023-04-04T06:23:14.691Z,80.97
2023-04-04T06:24:14.684Z,80.87
2023-04-04T06:25:14.671Z,80.97
2023-04-04T06:26:14.665Z,81.07
2023-04-04T06:27:14.616Z,80.93
2023-04-04T06:28:14.614Z,80.73
2023-04-04T06:29:14.664Z,80.62
2023-04-04T06:30:14.635Z,80.58
2023-04-04T06:31:14.580Z,80.38
2023-04-04T06:32:14.572Z,80.16
2023-04-04T06:33:14.564Z,79.92
2023-04-04T06:34:14.569Z,79.82
2023-04-04T06:35:14.786Z,79.47
2023-04-04T06:36:14.558Z,79.26
2023-04-04T06:37:14.512Z,79.15
2023-04-04T06:38:14.496Z,79.22
2023-04-04T06:39:14.484Z,79.22
2023-04-04T06:40:14.490Z,79.01
2023-04-04T06:41:14.482Z,78.70
2023-04-04T06:42:14.443Z,78.35
2023-04-04T06:43:14.443Z,78.25
2023-04-04T06:44:14.423Z,78.04
2023-04-04T06:45:14.445Z,77.90
2023-04-04T06:46:14.444Z,77.58
2023-04-04T06:47:14.392Z,77.34
2023-04-04T06:48:14.385Z,76.82
2023-04-04T06:49:14.384Z,76.51
2023-04-04T06:50:14.384Z,76.57
2023-04-04T06:51:14.363Z,75.53
2023-04-04T06:52:14.347Z,75.32
2023-04-04T06:53:14.327Z,75.19
2023-04-04T06:54:14.308Z,75.29
2023-04-04T06:55:14.593Z,74.98
2023-04-04T06:56:14.804Z,74.35
2023-04-04T06:57:14.284Z,73.52
2023-04-04T06:58:14.271Z,73.38
2023-04-04T06:59:14.334Z,73.69
2023-04-04T07:00:14.293Z,73.77
2023-04-04T07:01:14.270Z,72.62
2023-04-04T07:02:14.283Z,71.89
2023-04-04T07:03:14.245Z,71.89
2023-04-04T07:04:14.208Z,72.20
2023-04-04T07:05:14.232Z,71.97
2023-04-04T07:06:14.182Z,71.72
2023-04-04T07:07:14.167Z,71.41
2023-04-04T07:08:14.159Z,70.44
2023-04-04T07:09:25.860Z,69.71
2023-04-04T07:10:14.160Z,69.40
2023-04-04T07:11:14.157Z,69.20
2023-04-04T07:12:14.125Z,68.65
2023-04-04T07:13:14.102Z,67.92
2023-04-04T07:14:14.103Z,68.13
2023-04-04T07:15:14.108Z,68.33
2023-04-04T07:16:14.140Z,68.23
2023-04-04T07:17:24.192Z,67.61
2023-04-04T07:18:14.064Z,67.37
2023-04-04T07:19:14.046Z,67.16
2023-04-04T07:20:14.032Z,66.44
2023-04-04T07:21:14.050Z,66.51
2023-04-04T07:22:14.003Z,66.82
2023-04-04T07:23:13.992Z,66.47
2023-04-04T07:24:13.982Z,66.27
2023-04-04T07:25:13.971Z,66.89
2023-04-04T07:26:13.976Z,66.96
2023-04-04T07:27:13.976Z,66.86
2023-04-04T07:28:13.937Z,66.52
2023-04-04T07:29:13.932Z,65.69
2023-04-04T07:30:13.923Z,64.65
2023-04-04T07:31:13.948Z,64.86
2023-04-04T07:32:13.938Z,64.03
2023-04-04T07:33:13.880Z,63.90
2023-04-04T07:34:13.889Z,64.31
2023-04-04T07:35:13.868Z,64.94
2023-04-04T07:36:13.885Z,65.11
2023-04-04T07:37:13.864Z,64.49
2023-04-04T07:38:13.826Z,64.70
2023-04-04T07:39:13.815Z,64.77
2023-04-04T07:40:13.799Z,64.77
2023-04-04T07:41:13.796Z,64.77
2023-04-04T07:42:13.774Z,64.56
2023-04-04T07:43:13.816Z,64.87
2023-04-04T07:44:13.852Z,64.77
2023-04-04T07:45:13.750Z,64.56
2023-04-04T07:46:13.800Z,64.56
2023-04-04T07:47:13.721Z,64.25
2023-04-04T07:48:13.741Z,63.84
2023-04-04T07:49:13.709Z,63.71
2023-04-04T07:50:13.687Z,63.50
2023-04-04T07:51:13.674Z,63.09
2023-04-04T07:52:13.679Z,61.43
2023-04-04T07:53:13.649Z,60.91
2023-04-04T07:54:13.674Z,61.74
2023-04-04T07:55:15.608Z,61.95
2023-04-04T07:56:13.614Z,62.26
2023-04-04T07:57:13.637Z,62.77
2023-04-04T07:58:13.590Z,62.13
2023-04-04T07:59:13.627Z,61.61
2023-04-04T08:00:13.567Z,61.40
2023-04-04T08:01:13.572Z,62.44
2023-04-04T08:02:13.640Z,62.20
2023-04-04T08:03:13.688Z,61.48
2023-04-04T08:04:13.560Z,61.55
2023-04-04T08:05:13.525Z,62.59
2023-04-04T08:06:13.530Z,62.27
2023-04-04T08:07:13.521Z,61.48
2023-04-04T08:08:13.475Z,62.17
2023-04-04T08:09:13.470Z,62.69
2023-04-04T08:10:13.457Z,61.97
2023-04-04T08:11:13.471Z,61.97
2023-04-04T08:12:13.485Z,60.58
2023-04-04T08:13:13.428Z,61.33
2023-04-04T08:14:13.461Z,62.23
2023-04-04T08:15:13.401Z,62.41
2023-04-04T08:16:13.412Z,61.24
2023-04-04T08:17:13.426Z,60.11
2023-04-04T08:18:13.361Z,58.01
2023-04-04T08:19:13.355Z,59.25
2023-04-04T08:20:13.339Z,58.92
2023-04-04T08:21:13.358Z,59.23
2023-04-04T08:22:13.338Z,60.02
2023-04-04T08:23:13.377Z,58.65
2023-04-04T08:24:13.306Z,57.93
2023-04-04T08:25:13.295Z,58.79
2023-04-04T08:26:13.268Z,60.33
2023-04-04T08:27:13.290Z,61.16
2023-04-04T08:28:13.282Z,60.41
2023-04-04T08:29:13.242Z,58.27
2023-04-04T08:30:13.253Z,58.65
2023-04-04T08:31:13.288Z,59.25
2023-04-04T08:32:13.237Z,58.22
2023-04-04T08:33:13.216Z,58.70
2023-04-04T08:34:13.194Z,58.50
2023-04-04T08:35:13.190Z,59.09
2023-04-04T08:36:13.163Z,57.24
2023-04-04T08:37:13.172Z,57.26
2023-04-04T08:38:13.161Z,56.23
2023-04-04T08:39:13.137Z,54.41
2023-04-04T08:40:13.111Z,53.99
2023-04-04T08:41:13.297Z,56.36
2023-04-04T08:42:13.126Z,56.95
2023-04-04T08:43:13.069Z,54.79
2023-04-04T08:44:13.088Z,55.93
2023-04-04T08:45:13.053Z,56.65
2023-04-04T08:46:13.067Z,57.34
2023-04-04T08:47:13.074Z,57.31
2023-04-04T08:48:13.035Z,54.56
2023-04-04T08:49:13.069Z,52.34
2023-04-04T08:50:13.021Z,53.19
2023-04-04T08:51:12.998Z,53.74
2023-04-04T08:52:13.017Z,53.83
2023-04-04T08:53:12.973Z,54.74
2023-04-04T08:54:12.965Z,55.33
2023-04-04T08:55:12.961Z,54.79
2023-04-04T08:56:12.941Z,53.97
2023-04-04T08:57:12.952Z,52.53
2023-04-04T08:58:12.921Z,53.94
2023-04-04T08:59:12.969Z,56.38
2023-04-04T09:00:12.983Z,55.23
2023-04-04T09:01:12.973Z,53.69
2023-04-04T09:02:12.912Z,51.84
2023-04-04T09:03:12.896Z,49.93
2023-04-04T09:04:12.877Z,52.50
2023-04-04T09:05:12.834Z,53.50
2023-04-04T09:06:12.842Z,53.69
2023-04-04T09:07:12.857Z,49.80
2023-04-04T09:08:12.835Z,51.55
2023-04-04T09:09:12.796Z,51.22
2023-04-04T09:10:12.787Z,49.88
2023-04-04T09:11:12.776Z,48.13
2023-04-04T09:12:12.785Z,51.42
2023-04-04T09:13:16.569Z,53.87
2023-04-04T09:14:12.737Z,50.35
2023-04-04T09:15:12.749Z,50.35
2023-04-04T09:16:12.730Z,52.17
2023-04-04T09:17:12.700Z,51.97
2023-04-04T09:18:12.757Z,50.92
2023-04-04T09:19:12.736Z,52.04
2023-04-04T09:20:12.720Z,48.14
2023-04-04T09:21:12.656Z,50.61
2023-04-04T09:22:12.656Z,51.72
2023-04-04T09:23:12.669Z,51.48
2023-04-04T09:24:12.659Z,51.07
2023-04-04T09:25:12.659Z,48.72
2023-04-04T09:26:12.622Z,51.07
2023-04-04T09:27:12.584Z,50.36
2023-04-04T09:28:12.585Z,50.46
2023-04-04T09:29:12.580Z,48.92
2023-04-04T09:30:12.573Z,51.26
2023-04-04T09:31:12.534Z,49.51
2023-04-04T09:32:12.627Z,48.51
2023-04-04T09:33:12.514Z,49.56
2023-04-04T09:34:12.535Z,50.87
2023-04-04T09:35:12.510Z,48.92
2023-04-04T09:36:12.529Z,49.82
2023-04-04T09:37:12.468Z,49.00
2023-04-04T09:38:12.472Z,49.72
2023-04-04T09:39:12.494Z,51.26
2023-04-04T09:40:12.463Z,47.77
2023-04-04T09:41:12.437Z,47.96
2023-04-04T09:42:12.423Z,46.34
2023-04-04T09:43:12.441Z,48.82
2023-04-04T09:44:12.422Z,47.51
2023-04-04T09:45:16.917Z,46.69
2023-04-04T09:46:12.443Z,48.35
2023-04-04T09:47:18.053Z,49.77
2023-04-04T09:48:12.431Z,49.33
2023-04-04T09:49:13.534Z,49.23
2023-04-04T09:50:12.335Z,51.18
2023-04-04T09:51:12.343Z,47.69
2023-04-04T09:52:12.307Z,45.74
2023-04-04T09:53:12.296Z,45.68
2023-04-04T09:54:18.670Z,45.81
2023-04-04T09:55:12.278Z,45.93
2023-04-04T09:56:12.260Z,50.32
2023-04-04T09:57:12.246Z,49.09
2023-04-04T09:58:12.275Z,51.02
2023-04-04T09:59:13.677Z,49.15
2023-04-04T10:00:12.275Z,52.00
2023-04-04T10:01:12.293Z,48.18
2023-04-04T10:02:12.196Z,45.48
2023-04-04T10:03:12.179Z,51.33
2023-04-04T10:04:12.264Z,52.64
2023-04-04T10:05:12.159Z,49.64
2023-04-04T10:06:12.150Z,49.82
2023-04-04T10:07:12.180Z,52.69
2023-04-04T10:08:12.135Z,47.24
2023-04-04T10:09:12.145Z,47.46
2023-04-04T10:10:12.116Z,48.88
2023-04-04T10:11:12.721Z,48.26
2023-04-04T10:12:12.109Z,51.42
2023-04-04T10:13:12.096Z,45.89
2023-04-04T10:14:12.096Z,45.09
2023-04-04T10:15:12.051Z,48.77
2023-04-04T10:16:12.402Z,48.47
2023-04-04T10:17:12.018Z,48.03
2023-04-04T10:18:12.013Z,46.81
2023-04-04T10:19:12.041Z,47.01
2023-04-04T10:20:12.000Z,47.73
2023-04-04T10:21:15.882Z,49.06
2023-04-04T10:22:11.972Z,47.22
2023-04-04T10:23:11.951Z,45.47
2023-04-04T10:24:11.959Z,46.30
2023-04-04T10:25:11.963Z,47.52
2023-04-04T10:26:11.944Z,44.35
2023-04-04T10:27:11.907Z,46.83
2023-04-04T10:28:11.904Z,45.39
2023-04-04T10:29:11.899Z,49.16
2023-04-04T10:30:12.290Z,49.47
2023-04-04T10:31:11.902Z,50.14
2023-04-04T10:32:11.959Z,48.30
2023-04-04T10:33:11.849Z,47.86
2023-04-04T10:34:11.844Z,48.38
2023-04-04T10:35:11.845Z,45.84
2023-04-04T10:36:11.876Z,47.60
2023-04-04T10:37:13.156Z,49.83
2023-04-04T10:38:11.789Z,51.54
2023-04-04T10:39:11.780Z,46.12
2023-04-04T10:40:11.754Z,47.25
2023-04-04T10:41:11.782Z,48.58
2023-04-04T10:42:11.733Z,50.91
2023-04-04T10:43:11.749Z,43.77
2023-04-04T10:44:11.712Z,48.17
2023-04-04T10:45:20.420Z,50.81
2023-04-04T10:46:11.738Z,44.57
2023-04-04T10:47:11.719Z,46.72
2023-04-04T10:48:11.715Z,47.03
2023-04-04T10:49:11.688Z,45.59
2023-04-04T10:50:11.662Z,46.74
2023-04-04T10:51:11.649Z,48.68
2023-04-04T10:52:11.643Z,49.99
2023-04-04T10:53:11.629Z,44.98
2023-04-04T10:54:11.594Z,42.85
2023-04-04T10:55:11.581Z,51.32
2023-04-04T10:56:11.578Z,49.35
2023-04-04T10:57:11.556Z,48.41
2023-04-04T10:58:11.570Z,49.54
2023-04-04T10:59:11.579Z,47.49
2023-04-04T11:00:11.533Z,50.25
2023-04-04T11:01:11.545Z,45.14
2023-04-04T11:02:11.525Z,45.22
2023-04-04T11:03:11.590Z,45.32
2023-04-04T11:04:11.499Z,46.34
2023-04-04T11:05:11.475Z,45.84
2023-04-04T11:06:11.522Z,46.14
2023-04-04T11:07:11.447Z,41.24
2023-04-04T11:08:11.461Z,45.02
2023-04-04T11:09:11.432Z,47.37
2023-04-04T11:10:11.456Z,43.29
2023-04-04T11:11:21.716Z,45.32
2023-04-04T11:12:11.408Z,45.40
2023-04-04T11:13:13.286Z,45.53
2023-04-04T11:14:11.397Z,47.86
2023-04-04T11:15:11.387Z,50.10
2023-04-04T11:16:11.382Z,43.18
2023-04-04T11:17:11.338Z,43.41
2023-04-04T11:18:26.925Z,46.49
2023-04-04T11:19:11.338Z,48.00
2023-04-04T11:20:11.403Z,46.04
2023-04-04T11:21:11.300Z,43.38
2023-04-04T11:22:11.291Z,44.71
2023-04-04T11:23:11.314Z,43.90
2023-04-04T11:24:11.279Z,45.04
2023-04-04T11:25:11.250Z,48.39
2023-04-04T11:26:11.244Z,44.22
2023-04-04T11:27:11.239Z,47.47
2023-04-04T11:28:11.219Z,44.12
2023-04-04T11:29:11.276Z,45.25
2023-04-04T11:30:11.224Z,46.26
2023-04-04T11:31:11.182Z,44.81
2023-04-04T11:32:11.256Z,48.80
2023-04-04T11:33:11.203Z,48.75
2023-04-04T11:34:11.244Z,46.20
2023-04-04T11:35:11.148Z,45.18
2023-04-04T11:36:11.193Z,46.71
2023-04-04T11:37:11.125Z,44.78
2023-04-04T11:38:11.175Z,45.77
2023-04-04T11:39:11.108Z,47.81
2023-04-04T11:40:11.102Z,45.45
2023-04-04T11:41:11.069Z,42.73
2023-04-04T11:42:11.096Z,43.57
2023-04-04T11:43:11.036Z,44.90
2023-04-04T11:44:11.057Z,44.41
2023-04-04T11:45:11.043Z,48.00
2023-04-04T11:46:11.033Z,45.22
2023-04-04T11:47:10.987Z,44.41
2023-04-04T11:48:11.028Z,45.12
2023-04-04T11:49:10.969Z,46.14
2023-04-04T11:50:10.985Z,44.08
2023-04-04T11:51:10.971Z,47.73
2023-04-04T11:52:10.933Z,43.65
2023-04-04T11:53:10.951Z,44.37
2023-04-04T11:54:10.951Z,44.55
2023-04-04T11:55:10.915Z,45.34
2023-04-04T11:56:10.892Z,45.14
2023-04-04T11:57:10.901Z,43.81
2023-04-04T11:58:13.046Z,42.59
2023-04-04T11:59:11.645Z,40.98
2023-04-04T12:00:10.848Z,44.14
2023-04-04T12:01:10.852Z,44.12
2023-04-04T12:02:10.890Z,41.39
2023-04-04T12:03:10.939Z,42.63
2023-04-04T12:04:10.890Z,41.33
2023-04-04T12:05:10.845Z,42.06
2023-04-04T12:06:10.847Z,44.20
2023-04-04T12:07:10.766Z,45.40
2023-04-04T12:08:10.794Z,45.72
2023-04-04T12:09:10.739Z,43.85
2023-04-04T12:10:10.735Z,45.79
2023-04-04T12:11:10.766Z,41.83
2023-04-04T12:12:10.735Z,42.77
2023-04-04T12:13:10.694Z,39.95
2023-04-04T12:14:10.708Z,44.45
2023-04-04T12:15:17.499Z,44.47
2023-04-04T12:16:10.705Z,50.78
2023-04-04T12:17:10.672Z,45.76
2023-04-04T12:18:10.669Z,45.02
2023-04-04T12:19:10.627Z,44.61
2023-04-04T12:20:10.656Z,44.53
2023-04-04T12:21:10.628Z,45.12
2023-04-04T12:22:10.596Z,46.63
2023-04-04T12:23:10.623Z,44.98
2023-04-04T12:24:10.575Z,43.32
2023-04-04T12:25:10.559Z,44.04
2023-04-04T12:26:10.573Z,42.71
2023-04-04T12:27:10.549Z,44.14
2023-04-04T12:28:10.519Z,45.28
2023-04-04T12:29:10.525Z,42.22
2023-04-04T12:30:10.583Z,46.92
2023-04-04T12:31:10.546Z,50.08
2023-04-04T12:32:10.478Z,41.20
2023-04-04T12:33:10.481Z,40.73
2023-04-04T12:34:10.456Z,41.88
2023-04-04T12:35:10.444Z,43.02
2023-04-04T12:36:10.527Z,40.60
2023-04-04T12:37:10.890Z,44.08
2023-04-04T12:38:10.410Z,44.79
2023-04-04T12:39:10.398Z,44.67
2023-04-04T12:40:10.403Z,48.33
2023-04-04T12:41:10.366Z,45.94
2023-04-04T12:42:10.362Z,44.61
2023-04-04T12:43:10.384Z,45.31
2023-04-04T12:44:10.354Z,45.28
2023-04-04T12:45:10.326Z,47.63
2023-04-04T12:46:10.333Z,41.61
2023-04-04T12:47:10.322Z,44.37
2023-04-04T12:48:10.367Z,44.78
2023-04-04T12:49:10.310Z,43.75
2023-04-04T12:50:10.268Z,42.22
2023-04-04T12:51:10.256Z,44.46
2023-04-04T12:52:10.239Z,45.79